createdAt,value
2017-10-11T00:00:49.027Z,94.10
2017-10-11T00:03:16.757Z,94.00
2017-10-11T00:05:44.387Z,94.30
2017-10-11T00:08:12.833Z,95.40
2017-10-11T00:10:40.458Z,95.20
2017-10-11T00:13:08.082Z,93.20
2017-10-11T00:15:35.786Z,92.80
2017-10-11T00:18:04.171Z,93.30
2017-10-11T00:20:31.826Z,93.30
2017-10-11T00:22:59.446Z,93.80
2017-10-11T00:25:27.822Z,93.30
2017-10-11T00:27:56.274Z,93.20
2017-10-11T00:30:24.658Z,92.10
2017-10-11T00:32:52.322Z,92.10
2017-10-11T00:35:19.950Z,91.90
2017-10-11T00:37:47.574Z,92.70
2017-10-11T00:40:15.446Z,91.80
2017-10-11T00:42:43.061Z,91.40
2017-10-11T00:45:10.723Z,91.20
2017-10-11T00:47:39.118Z,92.60
2017-10-11T00:50:06.865Z,92.50
2017-10-11T00:52:34.505Z,91.40
2017-10-11T00:55:02.146Z,91.00
2017-10-11T00:57:29.807Z,91.00
2017-10-11T00:59:57.444Z,90.00
2017-10-11T01:02:25.067Z,90.40
2017-10-11T01:04:52.969Z,91.30
2017-10-11T01:07:20.590Z,90.50
2017-10-11T01:09:48.246Z,90.40
2017-10-11T01:12:15.895Z,91.30
2017-10-11T01:14:43.510Z,90.50
2017-10-11T01:17:11.918Z,90.40
2017-10-11T01:19:39.534Z,90.40
2017-10-11T01:22:07.198Z,89.90
2017-10-11T01:24:34.828Z,89.70
2017-10-11T01:27:02.451Z,90.60
2017-10-11T01:29:30.852Z,90.90
2017-10-11T01:31:58.558Z,90.70
2017-10-11T01:34:26.808Z,90.60
2017-10-11T01:36:54.421Z,89.80
2017-10-11T01:39:22.037Z,90.60
2017-10-11T01:41:49.693Z,89.20
2017-10-11T01:44:17.423Z,89.10
2017-10-11T01:46:45.095Z,90.10
2017-10-11T01:49:12.816Z,89.50
2017-10-11T01:51:41.205Z,89.70
2017-10-11T01:54:08.851Z,89.60
2017-10-11T01:56:36.474Z,90.90
2017-10-11T01:59:04.118Z,90.40
2017-10-11T02:01:32.494Z,90.10
2017-10-11T02:04:00.115Z,90.10
2017-10-11T02:06:27.765Z,89.20
2017-10-11T02:08:55.402Z,88.80
2017-10-11T02:11:23.063Z,88.80
2017-10-11T02:13:51.448Z,87.40
2017-10-11T02:16:19.083Z,87.40
2017-10-11T02:18:47.502Z,87.40
2017-10-11T02:21:15.118Z,87.40
2017-10-11T02:23:42.793Z,86.10
2017-10-11T02:26:10.406Z,86.70
2017-10-11T02:28:38.022Z,88.00
2017-10-11T02:31:06.434Z,85.90
2017-10-11T02:33:34.053Z,85.90
2017-10-11T02:36:01.721Z,86.50
2017-10-11T02:38:29.364Z,87.20
2017-10-11T02:40:57.067Z,85.60
2017-10-11T02:43:24.704Z,86.10
2017-10-11T02:45:52.321Z,85.10
2017-10-11T02:48:20.005Z,85.80
2017-10-11T02:50:47.634Z,85.40
2017-10-11T02:53:15.362Z,84.90
2017-10-11T02:55:43.006Z,85.20
2017-10-11T02:58:10.626Z,86.30
2017-10-11T03:00:38.280Z,84.90
2017-10-11T03:03:06.158Z,85.00
2017-10-11T03:05:33.780Z,84.60
2017-10-11T03:08:01.429Z,84.60
2017-10-11T03:10:29.050Z,84.90
2017-10-11T03:12:56.895Z,85.10
2017-10-11T03:15:25.340Z,85.40
2017-10-11T03:17:52.959Z,85.30
2017-10-11T03:20:20.629Z,85.30
2017-10-11T03:22:48.256Z,85.50
2017-10-11T03:25:16.235Z,85.50
2017-10-11T03:27:43.851Z,85.80
2017-10-11T03:30:11.472Z,85.40
2017-10-11T03:32:39.126Z,85.30
2017-10-11T03:35:08.173Z,85.70
2017-10-11T03:37:36.604Z,85.80
2017-10-11T03:40:04.237Z,85.80
2017-10-11T03:42:31.879Z,85.10
2017-10-11T03:44:59.522Z,85.50
2017-10-11T03:47:27.231Z,84.90
2017-10-11T03:49:54.881Z,85.30
2017-10-11T03:52:23.263Z,85.90
2017-10-11T03:54:50.890Z,85.90
2017-10-11T03:57:18.571Z,85.20
2017-10-11T03:59:46.220Z,86.30
2017-10-11T04:02:13.890Z,85.00
2017-10-11T04:04:41.523Z,84.30
2017-10-11T04:07:09.129Z,84.90
2017-10-11T04:09:37.455Z,84.60
2017-10-11T04:12:05.078Z,84.20
2017-10-11T04:14:32.733Z,84.50
2017-10-11T04:17:00.366Z,85.50
2017-10-11T04:19:28.004Z,85.10
2017-10-11T04:21:55.820Z,83.70
2017-10-11T04:24:24.206Z,84.40
2017-10-11T04:26:51.854Z,84.40
2017-10-11T04:29:19.498Z,82.70
2017-10-11T04:31:47.869Z,83.40
2017-10-11T04:34:15.514Z,83.50
2017-10-11T04:36:43.152Z,84.70
2017-10-11T04:39:10.804Z,83.60
2017-10-11T04:41:38.430Z,83.40
2017-10-11T04:44:06.251Z,83.30
2017-10-11T04:46:33.892Z,82.80
2017-10-11T04:49:01.521Z,85.60
2017-10-11T04:51:29.169Z,84.50
2017-10-11T04:53:56.870Z,84.10
2017-10-11T04:56:24.482Z,84.10
2017-10-11T04:58:52.121Z,85.20
2017-10-11T05:01:19.726Z,84.90
2017-10-11T05:03:47.369Z,83.90
2017-10-11T05:06:14.982Z,84.10
2017-10-11T05:08:42.648Z,84.30
2017-10-11T05:11:10.284Z,83.90
2017-10-11T05:13:38.680Z,83.20
2017-10-11T05:16:06.345Z,83.10
2017-10-11T05:18:33.969Z,83.10
2017-10-11T05:21:01.586Z,83.70
2017-10-11T05:23:29.992Z,83.40
2017-10-11T05:25:57.644Z,83.40
2017-10-11T05:28:25.328Z,84.10
2017-10-11T05:30:52.969Z,83.10
2017-10-11T05:33:20.598Z,84.00
2017-10-11T05:35:48.272Z,84.10
2017-10-11T05:38:16.878Z,84.60
2017-10-11T05:40:44.546Z,84.60
2017-10-11T05:43:12.172Z,84.30
2017-10-11T05:45:39.794Z,84.10
2017-10-11T05:48:07.458Z,84.00
2017-10-11T05:50:35.182Z,83.70
2017-10-11T05:53:03.018Z,83.80
2017-10-11T05:55:30.643Z,84.00
2017-10-11T05:57:58.267Z,85.20
2017-10-11T06:00:26.272Z,84.30
2017-10-11T06:02:53.896Z,84.70
2017-10-11T06:05:21.559Z,85.40
2017-10-11T06:07:49.188Z,83.80
2017-10-11T06:10:16.851Z,84.20
2017-10-11T06:12:44.495Z,84.80
2017-10-11T06:15:12.118Z,84.80
2017-10-11T06:17:39.779Z,84.00
2017-10-11T06:20:07.423Z,84.70
2017-10-11T06:22:35.050Z,83.50
2017-10-11T06:25:03.746Z,83.00
2017-10-11T06:27:31.361Z,82.80
2017-10-11T06:29:59.010Z,82.80
2017-10-11T06:32:26.751Z,83.00
2017-10-11T06:34:54.382Z,83.50
2017-10-11T06:37:22.015Z,82.80
2017-10-11T06:39:49.638Z,82.90
2017-10-11T06:42:17.314Z,83.10
2017-10-11T06:44:44.940Z,82.30
2017-10-11T06:47:13.330Z,82.70
2017-10-11T06:49:40.980Z,82.60
2017-10-11T06:52:08.682Z,81.70
2017-10-11T06:54:36.338Z,81.20
2017-10-11T06:57:03.946Z,81.20
2017-10-11T06:59:31.562Z,82.20
2017-10-11T07:01:59.197Z,81.00
2017-10-11T07:04:27.114Z,81.90
2017-10-11T07:06:54.790Z,80.10
2017-10-11T07:09:23.175Z,78.80
2017-10-11T07:11:50.787Z,78.80
2017-10-11T07:14:18.430Z,79.10
2017-10-11T07:16:46.814Z,78.10
2017-10-11T07:19:15.373Z,78.40
2017-10-11T07:21:43.827Z,77.70
2017-10-11T07:24:11.445Z,77.70
2017-10-11T07:26:39.078Z,78.00
2017-10-11T07:29:06.873Z,76.60
2017-10-11T07:31:34.526Z,78.20
2017-10-11T07:34:02.924Z,75.30
2017-10-11T07:36:30.541Z,75.10
2017-10-11T07:38:58.942Z,74.70
2017-10-11T07:41:26.557Z,74.70
2017-10-11T07:43:54.977Z,75.00
2017-10-11T07:46:22.606Z,75.00
2017-10-11T07:48:50.218Z,73.40
2017-10-11T07:51:18.623Z,72.80
2017-10-11T07:53:46.274Z,72.90
2017-10-11T07:56:13.931Z,72.70
2017-10-11T07:58:41.564Z,74.60
2017-10-11T08:01:09.174Z,70.80
2017-10-11T08:03:36.886Z,68.90
2017-10-11T08:06:04.515Z,67.60
2017-10-11T08:08:32.181Z,67.70
2017-10-11T08:11:00.571Z,58.20
2017-10-11T08:13:28.194Z,58.20
2017-10-11T08:15:56.782Z,57.00
2017-10-11T08:18:24.398Z,57.10
2017-10-11T08:20:52.050Z,59.60
2017-10-11T08:23:19.681Z,59.70
2017-10-11T08:25:47.413Z,60.10
2017-10-11T08:28:15.057Z,64.90
2017-10-11T08:30:42.686Z,63.10
2017-10-11T08:33:10.357Z,67.70
2017-10-11T08:35:37.989Z,65.00
2017-10-11T08:38:05.702Z,64.60
2017-10-11T08:40:33.348Z,66.60
2017-10-11T08:43:01.730Z,69.60
2017-10-11T08:45:29.386Z,69.50
2017-10-11T08:47:57.101Z,67.80
2017-10-11T08:50:26.097Z,65.10
2017-10-11T08:52:54.103Z,65.10
2017-10-11T08:55:21.755Z,65.60
2017-10-11T08:57:49.365Z,66.30
2017-10-11T09:00:16.987Z,64.20
2017-10-11T09:02:44.632Z,64.90
2017-10-11T09:05:12.258Z,67.20
2017-10-11T09:07:40.679Z,67.60
2017-10-11T09:10:08.313Z,67.50
2017-10-11T09:12:36.175Z,63.50
2017-10-11T09:15:03.819Z,69.10
2017-10-11T09:17:31.442Z,63.30
2017-10-11T09:19:59.092Z,65.70
2017-10-11T09:22:26.733Z,65.20
2017-10-11T09:24:54.369Z,60.70
2017-10-11T09:27:22.011Z,60.50
2017-10-11T09:29:49.634Z,58.60
2017-10-11T09:32:17.298Z,58.20
2017-10-11T09:34:45.827Z,56.40
2017-10-11T09:37:13.442Z,56.40
2017-10-11T09:39:41.067Z,54.00
2017-10-11T09:42:08.663Z,48.30
2017-10-11T09:44:36.344Z,43.90
2017-10-11T09:47:03.945Z,45.50
2017-10-11T09:49:31.548Z,44.70
2017-10-11T09:51:59.174Z,38.20
2017-10-11T09:54:26.836Z,45.30
2017-10-11T09:56:54.467Z,37.80
2017-10-11T09:59:22.063Z,38.90
2017-10-11T10:01:49.663Z,39.50
2017-10-11T10:04:17.316Z,35.40
2017-10-11T10:06:44.906Z,39.20
2017-10-11T10:09:12.534Z,34.50
2017-10-11T10:11:40.889Z,31.90
2017-10-11T10:14:09.255Z,33.60
2017-10-11T10:16:37.651Z,37.90
2017-10-11T10:19:05.310Z,37.90
2017-10-11T10:21:32.950Z,35.70
2017-10-11T10:24:00.551Z,39.10
2017-10-11T10:26:28.162Z,37.40
2017-10-11T10:28:55.850Z,40.30
2017-10-11T10:31:24.210Z,45.70
2017-10-11T10:33:52.626Z,41.70
2017-10-11T10:36:20.223Z,41.70
2017-10-11T10:38:48.590Z,40.10
2017-10-11T10:41:16.315Z,40.10
2017-10-11T10:43:43.921Z,45.60
2017-10-11T10:46:11.589Z,45.20
2017-10-11T10:48:39.216Z,45.90
2017-10-11T10:51:06.877Z,45.40
2017-10-11T10:53:34.544Z,47.30
2017-10-11T10:56:02.179Z,46.60
2017-10-11T10:58:29.849Z,50.70
2017-10-11T11:00:58.237Z,49.50
2017-10-11T11:03:25.880Z,49.50
2017-10-11T11:05:53.525Z,54.70
2017-10-11T11:08:21.201Z,54.70
2017-10-11T11:10:48.863Z,54.30
2017-10-11T11:13:16.491Z,50.70
2017-10-11T11:15:44.125Z,52.20
2017-10-11T11:18:11.786Z,50.60
2017-10-11T11:20:39.409Z,50.00
2017-10-11T11:23:07.139Z,52.20
2017-10-11T11:25:34.759Z,51.70
2017-10-11T11:28:02.390Z,48.20
2017-10-11T11:30:30.026Z,53.10
2017-10-11T11:32:57.659Z,53.50
2017-10-11T11:35:25.375Z,56.90
2017-10-11T11:37:53.002Z,54.90
2017-10-11T11:40:21.422Z,57.50
2017-10-11T11:42:49.069Z,57.10
2017-10-11T11:45:16.832Z,54.60
2017-10-11T11:47:44.493Z,55.00
2017-10-11T11:50:12.105Z,53.60
2017-10-11T11:52:39.722Z,53.40
2017-10-11T11:55:07.418Z,52.90
2017-10-11T11:57:35.039Z,55.80
2017-10-11T12:00:02.696Z,52.60
2017-10-11T12:02:30.309Z,54.50
2017-10-11T12:04:57.946Z,51.60
2017-10-11T12:07:26.350Z,54.90
2017-10-11T12:09:53.967Z,54.80
2017-10-11T12:12:21.634Z,53.10
2017-10-11T12:14:49.248Z,51.60
2017-10-11T12:17:17.637Z,48.40
2017-10-11T12:19:45.373Z,48.50
2017-10-11T12:22:13.004Z,49.60
2017-10-11T12:24:41.414Z,49.00
2017-10-11T12:27:09.035Z,48.60
2017-10-11T12:29:36.698Z,49.20
2017-10-11T12:32:04.346Z,47.00
2017-10-11T12:34:31.976Z,48.80
2017-10-11T12:36:59.629Z,48.20
2017-10-11T12:39:27.258Z,47.90
2017-10-11T12:41:54.889Z,51.00
2017-10-11T12:44:23.301Z,48.30
2017-10-11T12:46:50.953Z,48.20
2017-10-11T12:49:18.598Z,48.90
2017-10-11T12:51:46.922Z,45.70
2017-10-11T12:54:14.546Z,46.30
2017-10-11T12:56:42.206Z,46.70
2017-10-11T12:59:09.810Z,48.50
2017-10-11T13:01:37.470Z,47.00
2017-10-11T13:04:05.081Z,45.50
2017-10-11T13:06:32.699Z,48.80
2017-10-11T13:09:01.103Z,45.30
2017-10-11T13:11:28.696Z,45.10
2017-10-11T13:13:56.346Z,42.30
2017-10-11T13:16:23.992Z,37.20
2017-10-11T13:18:51.610Z,33.80
2017-10-11T13:21:19.242Z,35.60
2017-10-11T13:23:46.894Z,35.60
2017-10-11T13:26:14.534Z,38.10
2017-10-11T13:28:42.146Z,35.00
2017-10-11T13:31:09.756Z,28.40
2017-10-11T13:33:37.397Z,30.20
2017-10-11T13:36:05.002Z,27.80
2017-10-11T13:38:32.661Z,27.50
2017-10-11T13:41:00.261Z,27.00
2017-10-11T13:43:27.854Z,28.40
2017-10-11T13:45:55.483Z,29.60
2017-10-11T13:48:23.080Z,29.70
2017-10-11T13:50:50.715Z,31.80
2017-10-11T13:53:18.314Z,28.90
2017-10-11T13:55:46.025Z,34.10
2017-10-11T13:58:13.651Z,36.00
2017-10-11T14:00:41.266Z,34.70
2017-10-11T14:03:08.896Z,37.30
2017-10-11T14:05:36.499Z,38.90
2017-10-11T14:08:04.102Z,41.20
2017-10-11T14:10:31.738Z,41.50
2017-10-11T14:12:59.346Z,42.50
2017-10-11T14:15:26.994Z,41.90
2017-10-11T14:17:55.394Z,43.30
2017-10-11T14:20:23.013Z,43.20
2017-10-11T14:22:50.664Z,45.60
2017-10-11T14:25:18.283Z,45.20
2017-10-11T14:27:46.090Z,44.20
2017-10-11T14:30:13.720Z,48.80
2017-10-11T14:32:41.367Z,49.00
2017-10-11T14:35:09.059Z,47.00
2017-10-11T14:37:36.807Z,47.10
2017-10-11T14:40:04.474Z,47.40
2017-10-11T14:42:32.105Z,48.00
2017-10-11T14:44:59.734Z,47.70
2017-10-11T14:47:27.555Z,48.40
2017-10-11T14:49:55.225Z,48.50
2017-10-11T14:52:22.917Z,50.10
2017-10-11T14:55:01.008Z,49.70
2017-10-11T14:57:30.196Z,50.60
2017-10-11T14:59:57.912Z,52.00
2017-10-11T15:02:25.553Z,52.50
2017-10-11T15:04:53.478Z,52.50
2017-10-11T15:07:21.101Z,54.00
2017-10-11T15:09:48.801Z,55.20
2017-10-11T15:12:16.434Z,55.70
2017-10-11T15:14:44.064Z,55.10
2017-10-11T15:17:11.966Z,55.40
2017-10-11T15:19:39.603Z,55.00
2017-10-11T15:22:07.310Z,55.30
2017-10-11T15:24:34.945Z,56.30
2017-10-11T15:27:02.577Z,58.10
2017-10-11T15:29:30.239Z,58.90
2017-10-11T15:31:57.978Z,57.70
2017-10-11T15:34:25.715Z,57.80
2017-10-11T15:36:54.131Z,58.30
2017-10-11T15:39:21.825Z,58.30
2017-10-11T15:41:50.241Z,58.10
2017-10-11T15:44:17.877Z,58.00
2017-10-11T15:46:45.695Z,58.70
2017-10-11T15:49:14.110Z,60.00
2017-10-11T15:51:41.865Z,60.00
2017-10-11T15:54:09.670Z,58.60
2017-10-11T15:56:37.412Z,58.00
2017-10-11T15:59:05.123Z,58.10
2017-10-11T16:01:32.889Z,58.70
2017-10-11T16:04:01.271Z,59.00
2017-10-11T16:06:28.954Z,59.00
2017-10-11T16:08:56.675Z,58.60
2017-10-11T16:11:24.372Z,58.60
2017-10-11T16:13:52.011Z,59.20
2017-10-11T16:16:19.646Z,60.00
2017-10-11T16:18:47.291Z,59.40
2017-10-11T16:21:14.933Z,59.60
2017-10-11T16:23:42.634Z,59.60
2017-10-11T16:26:11.030Z,60.10
2017-10-11T16:28:38.655Z,60.10
2017-10-11T16:31:07.205Z,60.50
2017-10-11T16:33:35.967Z,60.30
2017-10-11T16:36:03.628Z,60.20
2017-10-11T16:38:32.055Z,60.10
2017-10-11T16:40:59.713Z,60.10
2017-10-11T16:43:27.359Z,61.10
2017-10-11T16:45:54.989Z,60.90
2017-10-11T16:48:22.679Z,61.20
2017-10-11T16:50:50.294Z,60.70
2017-10-11T16:53:17.921Z,60.20
2017-10-11T16:55:45.583Z,62.10
2017-10-11T16:58:13.199Z,61.60
2017-10-11T17:00:40.873Z,65.10
2017-10-11T17:03:08.510Z,63.60
2017-10-11T17:05:36.232Z,64.60
2017-10-11T17:08:03.910Z,66.00
2017-10-11T17:10:31.534Z,68.00
2017-10-11T17:12:59.245Z,67.80
2017-10-11T17:15:27.649Z,67.30
2017-10-11T17:17:55.396Z,67.30
2017-10-11T17:20:23.090Z,67.70
2017-10-11T17:22:50.722Z,69.30
2017-10-11T17:25:18.375Z,68.90
2017-10-11T17:27:46.246Z,66.70
2017-10-11T17:30:13.867Z,66.50
2017-10-11T17:32:41.524Z,65.80
2017-10-11T17:35:09.138Z,63.80
2017-10-11T17:37:36.977Z,63.90
2017-10-11T17:40:04.612Z,62.60
2017-10-11T17:42:32.226Z,61.80
2017-10-11T17:44:59.882Z,62.00
2017-10-11T17:47:27.489Z,61.60
2017-10-11T17:49:55.137Z,60.50
2017-10-11T17:52:22.762Z,60.60
2017-10-11T17:54:50.397Z,60.40
2017-10-11T17:57:18.047Z,61.00
2017-10-11T17:59:45.862Z,62.20
2017-10-11T18:02:13.505Z,61.80
2017-10-11T18:04:41.147Z,60.60
2017-10-11T18:07:08.760Z,62.50
2017-10-11T18:09:36.418Z,61.80
2017-10-11T18:12:04.057Z,62.70
2017-10-11T18:14:31.721Z,62.20
2017-10-11T18:16:59.345Z,62.60
2017-10-11T18:19:26.995Z,62.20
2017-10-11T18:21:54.647Z,64.30
2017-10-11T18:24:22.266Z,62.60
2017-10-11T18:26:49.967Z,63.00
2017-10-11T18:29:17.580Z,64.90
2017-10-11T18:31:45.343Z,63.40
2017-10-11T18:34:13.009Z,63.90
2017-10-11T18:36:40.646Z,63.70
2017-10-11T18:39:08.322Z,62.80
2017-10-11T18:41:36.914Z,62.40
2017-10-11T18:44:04.555Z,62.40
2017-10-11T18:46:32.217Z,63.30
2017-10-11T18:48:59.843Z,62.50
2017-10-11T18:51:27.501Z,62.80
2017-10-11T18:53:55.165Z,61.60
2017-10-11T18:56:22.806Z,61.20
2017-10-11T18:58:50.442Z,61.40
2017-10-11T19:01:18.054Z,61.50
2017-10-11T19:03:46.527Z,63.20
2017-10-11T19:06:14.930Z,61.80
2017-10-11T19:08:42.546Z,61.90
2017-10-11T19:11:10.199Z,63.00
2017-10-11T19:13:37.822Z,61.60
2017-10-11T19:16:06.314Z,62.90
2017-10-11T19:18:34.786Z,62.90
2017-10-11T19:21:05.515Z,61.60
2017-10-11T19:23:35.135Z,61.60
2017-10-11T19:26:04.150Z,61.50
2017-10-11T19:28:33.073Z,60.30
2017-10-11T19:31:01.507Z,61.50
2017-10-11T19:33:29.136Z,61.40
2017-10-11T19:35:58.997Z,59.10
2017-10-11T19:38:28.173Z,59.10
2017-10-11T19:40:56.879Z,59.40
2017-10-11T19:43:27.156Z,58.60
2017-10-11T19:45:59.691Z,57.60
2017-10-11T19:48:28.186Z,57.50
2017-10-11T19:50:55.879Z,57.40
2017-10-11T19:53:25.617Z,57.90
2017-10-11T19:55:55.568Z,57.80
2017-10-11T19:58:23.634Z,58.50
2017-10-11T20:00:54.124Z,58.00
2017-10-11T20:03:22.011Z,58.10
2017-10-11T20:05:50.466Z,57.90
2017-10-11T20:08:18.130Z,57.50
2017-10-11T20:10:45.842Z,60.20
2017-10-11T20:13:13.450Z,57.90
2017-10-11T20:15:43.930Z,59.50
2017-10-11T20:18:11.594Z,58.80
2017-10-11T20:20:39.210Z,59.30
2017-10-11T20:23:08.914Z,59.00
2017-10-11T20:25:36.757Z,59.00
2017-10-11T20:28:04.386Z,60.30
2017-10-11T20:30:33.824Z,58.30
2017-10-11T20:33:01.522Z,58.00
2017-10-11T20:35:36.355Z,60.60
2017-10-11T20:38:04.738Z,58.30
2017-10-11T20:40:32.430Z,58.20
2017-10-11T20:43:00.070Z,58.60
2017-10-11T20:45:28.106Z,58.10
2017-10-11T20:47:55.850Z,59.50
2017-10-11T20:50:23.465Z,57.80
2017-10-11T20:52:51.854Z,57.60
2017-10-11T20:55:19.498Z,57.60
2017-10-11T20:57:47.219Z,57.70
2017-10-11T21:00:15.892Z,56.90
2017-10-11T21:02:43.553Z,56.80
2017-10-11T21:05:11.162Z,56.70
2017-10-11T21:07:38.817Z,56.50
2017-10-11T21:10:07.202Z,58.00
2017-10-11T21:12:34.850Z,58.00
2017-10-11T21:15:02.472Z,56.20
2017-10-11T21:17:30.851Z,57.20
2017-10-11T21:19:59.258Z,56.50
2017-10-11T21:22:26.916Z,56.50
2017-10-11T21:24:54.574Z,56.80
2017-10-11T21:27:22.187Z,56.50
2017-10-11T21:29:49.795Z,56.50
2017-10-11T21:32:18.210Z,57.00
2017-10-11T21:34:45.858Z,57.00
2017-10-11T21:37:13.512Z,57.50
2017-10-11T21:39:41.131Z,56.90
2017-10-11T21:42:08.746Z,56.80
2017-10-11T21:44:37.214Z,57.40
2017-10-11T21:47:04.844Z,57.40
2017-10-11T21:49:33.267Z,57.00
2017-10-11T21:52:00.886Z,56.90
2017-10-11T21:54:28.510Z,58.10
2017-10-11T21:56:56.917Z,57.20
2017-10-11T21:59:24.541Z,57.10
2017-10-11T22:01:52.206Z,59.00
2017-10-11T22:04:19.895Z,57.90
2017-10-11T22:06:47.522Z,58.10
2017-10-11T22:09:15.181Z,57.40
2017-10-11T22:11:42.903Z,59.00
2017-10-11T22:14:10.562Z,59.80
2017-10-11T22:16:38.182Z,60.40
2017-10-11T22:19:05.813Z,61.50
2017-10-11T22:21:33.462Z,59.10
2017-10-11T22:24:01.084Z,59.30
2017-10-11T22:26:29.794Z,59.00
2017-10-11T22:28:57.415Z,58.90
2017-10-11T22:31:25.045Z,58.90
2017-10-11T22:33:53.448Z,58.10
2017-10-11T22:36:21.053Z,58.10
2017-10-11T22:38:48.715Z,60.20
2017-10-11T22:41:17.110Z,59.70
2017-10-11T22:43:44.754Z,59.70
2017-10-11T22:46:12.396Z,60.60
2017-10-11T22:48:40.023Z,60.20
2017-10-11T22:51:08.439Z,61.30
2017-10-11T22:53:36.219Z,61.30
2017-10-11T22:56:04.598Z,60.30
2017-10-11T22:58:33.010Z,59.90
2017-10-11T23:01:00.631Z,59.90
2017-10-11T23:03:28.293Z,61.00
2017-10-11T23:05:55.933Z,62.00
2017-10-11T23:08:23.558Z,61.30
2017-10-11T23:10:51.189Z,60.80
2017-10-11T23:13:19.566Z,60.90
2017-10-11T23:15:47.273Z,60.90
2017-10-11T23:18:14.890Z,60.30
2017-10-11T23:20:42.521Z,60.90
2017-10-11T23:23:10.162Z,60.90
2017-10-11T23:25:37.778Z,62.10
2017-10-11T23:28:05.438Z,61.50
2017-10-11T23:30:33.814Z,61.20
2017-10-11T23:33:01.440Z,61.10
2017-10-11T23:35:29.074Z,60.80
2017-10-11T23:37:56.759Z,61.00
2017-10-11T23:40:24.406Z,60.60
2017-10-11T23:42:52.022Z,61.60
2017-10-11T23:45:20.402Z,62.60
2017-10-11T23:47:48.810Z,61.10
2017-10-11T23:50:16.422Z,61.10
2017-10-11T23:52:44.072Z,60.70
2017-10-11T23:55:11.691Z,61.30
2017-10-11T23:57:40.074Z,61.00
